Time;durP1;ratioP1;P1;durP2;ratioP2;P2;SDS_P1;SDS_P2;PMS_P1;PMS_P2;Temp;Humidity;BMP_temperature;BMP_pressure;BME280_temperature;BME280_humidity;BME280_pressure;Samples;Min_cycle;Max_cycle;Signal;HPM_P1;HPM_P2
2021/05/29 03:18:44;;;;;;;;;;;;;;;;;;;;;
2021/05/29 04:46:49;;;;;;;;;;;;;;;;;;;;;
2021/05/29 08:26:35;;;;;;;;;;;;;;;;;;;;;
2021/05/29 08:49:24;;;;;;;5.60;5.10;;;21.70;78.70;;;;;;6425881;22;20028;-94
2021/05/29 09:03:34;;;;;;;;;;;;;;;;;;;;;
2021/05/29 09:37:40;;;;;;;;;;;;;;;;;;;;;
2021/05/29 10:45:01;;;;;;;;;;;;;;;;;;;;;
2021/05/29 10:56:09;;;;;;;;;;;;;;;;;;;;;
2021/05/29 13:09:57;;;;;;;;;;;;;;;;;;;;;
2021/05/29 13:18:20;;;;;;;3.95;3.28;;;22.00;69.30;;;;;;5895058;24;20014;-92
2021/05/29 13:21:43;;;;;;;;;;;;;;;;;;;;;
2021/05/29 13:28:29;;;;;;;6.10;3.58;;;22.50;67.00;;;;;;6010727;23;20016;-92
2021/05/29 13:31:50;;;;;;;;;;;;;;;;;;;;;
2021/05/29 13:55:01;;;;;;;4.25;2.20;;;21.20;70.10;;;;;;5990433;24;20106;-93
2021/05/29 14:01:58;;;;;;;;;;;;;;;;;;;;;
2021/05/29 14:08:05;;;;;;;1.70;1.60;;;20.90;69.20;;;;;;6073860;23;20135;-94
2021/05/29 14:11:21;;;;;;;4.45;2.50;;;20.80;69.50;;;;;;6044911;23;20007;-93
2021/05/29 14:17:58;;;;;;;;;;;;;;;;;;;;;
2021/05/29 14:20:41;;;;;;;2.17;1.58;;;20.70;70.90;;;;;;6074104;23;20034;-93
2021/05/29 14:23:26;;;;;;;;;;;;;;;;;;;;;
2021/05/29 14:29:44;;;;;;;4.70;2.05;;;20.60;72.00;;;;;;6277237;22;20015;-94
2021/05/29 14:41:18;;;;;;;;;;;;;;;;;;;;;
2021/05/29 14:43:57;;;;;;;2.08;1.88;;;20.20;72.00;;;;;;6421584;22;19998;-96
2021/05/29 14:46:50;;;;;;;3.35;1.88;;;20.20;72.10;;;;;;6393218;22;20433;-95
2021/05/29 14:49:56;;;;;;;;;;;;;;;;;;;;;
2021/05/29 14:52:40;;;;;;;;;;;;;;;;;;;;;
2021/05/29 14:55:50;;;;;;;;;;;;;;;;;;;;;
2021/05/29 14:59:01;;;;;;;1.73;1.60;;;20.30;69.50;;;;;;6394721;22;20005;-96
2021/05/29 15:05:28;;;;;;;1.90;1.80;;;20.30;69.90;;;;;;6409633;22;20009;-95
2021/05/29 15:08:25;;;;;;;3.13;2.00;;;20.20;68.80;;;;;;6397028;22;20025;-95
2021/05/29 15:11:46;;;;;;;;;;;;;;;;;;;;;
2021/05/29 15:15:31;;;;;;;;;;;;;;;;;;;;;
2021/05/29 15:18:57;;;;;;;;;;;;;;;;;;;;;
2021/05/29 15:22:16;;;;;;;;;;;;;;;;;;;;;
2021/05/29 15:25:41;;;;;;;;;;;;;;;;;;;;;
2021/05/29 15:28:51;;;;;;;2.72;2.03;;;19.70;70.70;;;;;;6289049;22;20022;-92
2021/05/29 15:31:42;;;;;;;;;;;;;;;;;;;;;
2021/05/29 15:34:17;;;;;;;2.00;1.90;;;19.50;71.60;;;;;;6285922;22;20003;-94
2021/05/29 15:37:59;;;;;;;4.05;2.55;;;19.50;71.50;;;;;;6264373;22;19991;-92
2021/05/29 15:43:57;;;;;;;2.58;2.38;;;19.40;73.00;;;;;;6287012;22;20004;-94
2021/05/29 15:46:43;;;;;;;2.70;2.50;;;19.30;73.40;;;;;;6303947;22;20073;-92
2021/05/29 15:49:55;;;;;;;;;;;;;;;;;;;;;
2021/05/29 15:55:26;;;;;;;;;;;;;;;;;;;;;
2021/05/29 15:59:07;;;;;;;;;;;;;;;;;;;;;
2021/05/29 16:01:35;;;;;;;4.43;2.50;;;19.20;74.00;;;;;;6343784;22;20010;-94
2021/05/29 16:04:33;;;;;;;2.30;2.13;;;19.30;73.30;;;;;;6349685;22;20102;-95
2021/05/29 16:08:05;;;;;;;;;;;;;;;;;;;;;
2021/05/29 16:14:14;;;;;;;2.25;2.05;;;19.20;72.10;;;;;;6199735;23;20385;-96
2021/05/29 16:17:25;;;;;;;;;;;;;;;;;;;;;
2021/05/29 16:20:08;;;;;;;7.47;2.30;;;19.10;72.40;;;;;;6240264;22;20004;-94
2021/05/29 16:23:19;;;;;;;;;;;;;;;;;;;;;
2021/05/29 16:29:48;;;;;;;;;;;;;;;;;;;;;
2021/05/29 16:33:11;;;;;;;2.67;2.22;;;18.90;72.80;;;;;;6297161;22;20007;-95
2021/05/29 16:39:29;;;;;;;3.03;2.25;;;18.90;73.20;;;;;;6284362;22;20020;-95
2021/05/29 16:42:28;;;;;;;;;;;;;;;;;;;;;
2021/05/29 16:45:54;;;;;;;;;;;;;;;;;;;;;
2021/05/29 16:49:04;;;;;;;2.42;2.20;;;18.80;73.40;;;;;;6424463;22;19998;-92
2021/05/29 16:51:57;;;;;;;;;;;;;;;;;;;;;
2021/05/29 16:55:25;;;;;;;3.40;2.38;;;18.80;74.00;;;;;;6432735;22;20004;-95
2021/05/29 16:58:21;;;;;;;;;;;;;;;;;;;;;
2021/05/29 17:01:09;;;;;;;2.72;2.25;;;18.70;75.30;;;;;;6411887;22;20022;-95
2021/05/29 17:03:53;;;;;;;5.55;2.80;;;18.70;75.40;;;;;;6365369;22;20432;-95
2021/05/29 17:06:33;;;;;;;3.33;2.90;;;18.60;76.20;;;;;;6383867;22;20002;-94
2021/05/29 17:09:36;;;;;;;;;;;;;;;;;;;;;
2021/05/29 17:12:09;;;;;;;2.80;2.60;;;18.50;77.10;;;;;;6409717;22;20049;-95
2021/05/29 17:17:33;;;;;;;2.80;2.58;;;18.50;76.70;;;;;;6415098;22;20026;-96
2021/05/29 17:19:59;;;;;;;6.00;2.78;;;18.50;76.90;;;;;;6385053;22;20005;-94
2021/05/29 17:22:26;;;;;;;5.38;2.80;;;18.40;76.90;;;;;;6383204;22;20155;-96
2021/05/29 17:25:11;;;;;;;4.05;2.75;;;18.40;76.80;;;;;;6413814;22;19994;-95
2021/05/29 17:27:54;;;;;;;2.45;2.25;;;18.40;76.90;;;;;;6386124;22;20006;-95
2021/05/29 17:30:23;;;;;;;3.35;3.05;;;18.30;77.20;;;;;;6386077;22;20026;-95
2021/05/29 17:32:51;;;;;;;4.65;2.60;;;18.30;77.20;;;;;;6382833;22;20448;-96
2021/05/29 17:35:25;;;;;;;2.53;2.35;;;18.30;77.40;;;;;;6385932;22;20043;-96
2021/05/29 17:37:57;;;;;;;2.30;2.10;;;18.30;77.30;;;;;;6382568;22;19998;-96
2021/05/29 17:40:35;;;;;;;;;;;;;;;;;;;;;
2021/05/29 17:43:24;;;;;;;3.10;2.80;;;18.30;77.50;;;;;;6381586;22;20441;-96
2021/05/29 17:46:12;;;;;;;3.85;2.75;;;18.30;77.80;;;;;;6377308;22;20006;-96
2021/05/29 17:49:29;;;;;;;;;;;;;;;;;;;;;
2021/05/29 17:52:11;;;;;;;2.85;2.33;;;18.20;77.70;;;;;;6370138;22;20017;-95
2021/05/29 17:54:52;;;;;;;;;;;;;;;;;;;;;
2021/05/29 17:57:47;;;;;;;2.22;2.03;;;18.20;77.50;;;;;;6389548;22;19994;-95
2021/05/29 18:03:18;;;;;;;2.30;2.10;;;18.10;77.40;;;;;;6383911;22;20081;-95
2021/05/29 18:09:09;;;;;;;2.83;2.63;;;18.10;78.30;;;;;;6389319;22;20053;-95
2021/05/29 18:11:37;;;;;;;2.42;2.22;;;18.10;77.80;;;;;;6400600;22;19997;-94
2021/05/29 18:14:13;;;;;;;2.55;2.35;;;18.00;77.80;;;;;;6400955;22;19983;-94
2021/05/29 18:16:57;;;;;;;3.20;2.50;;;17.90;77.80;;;;;;6390070;22;20014;-96
2021/05/29 18:19:53;;;;;;;2.20;2.08;;;17.90;78.30;;;;;;6398915;22;19986;-96
2021/05/29 18:22:31;;;;;;;;;;;;;;;;;;;;;
2021/05/29 18:28:15;;;;;;;3.03;2.70;;;17.80;77.80;;;;;;6357368;22;20006;-95
2021/05/29 18:30:41;;;;;;;3.22;2.70;;;17.80;77.80;;;;;;6375771;22;20124;-95
2021/05/29 18:33:10;;;;;;;2.35;2.15;;;17.70;77.80;;;;;;6375419;22;20025;-95
2021/05/29 18:36:07;;;;;;;2.22;2.08;;;17.70;77.90;;;;;;6374226;22;20078;-95
2021/05/29 18:45:13;;;;;;;3.42;2.92;;;17.60;78.40;;;;;;6375875;22;20044;-96
2021/05/29 18:47:59;;;;;;;;;;;;;;;;;;;;;
2021/05/29 18:50:35;;;;;;;3.65;2.55;;;17.60;78.10;;;;;;6398022;22;20026;-96
2021/05/29 18:53:27;;;;;;;2.53;2.33;;;17.60;78.40;;;;;;6348152;22;20421;-96
2021/05/29 18:56:03;;;;;;;2.85;2.60;;;17.50;78.30;;;;;;6348023;22;20075;-96
2021/05/29 18:58:58;;;;;;;2.55;2.35;;;17.50;78.70;;;;;;6348072;22;20003;-96
2021/05/29 19:04:42;;;;;;;3.10;2.63;;;17.50;79.10;;;;;;6400516;22;20015;-96
2021/05/29 19:07:35;;;;;;;2.92;2.63;;;17.40;79.90;;;;;;6373315;22;19990;-92
2021/05/29 19:10:29;;;;;;;5.50;2.90;;;17.40;80.00;;;;;;6372959;22;20002;-95
2021/05/29 19:13:00;;;;;;;;;;;17.40;80.40;;;;;;6373984;22;20004;-96
2021/05/29 19:15:45;;;;;;;2.55;2.28;;;17.30;80.80;;;;;;6373481;22;19890;-96
2021/05/29 19:18:38;;;;;;;2.63;2.42;;;17.30;80.30;;;;;;6373580;22;19997;-95
2021/05/29 19:21:22;;;;;;;3.00;2.70;;;17.20;81.20;;;;;;6353091;22;20006;-96
2021/05/29 19:29:13;;;;;;;3.10;2.85;;;17.30;81.90;;;;;;6377863;22;20010;-96
2021/05/29 19:40:29;;;;;;;2.85;2.65;;;17.30;81.00;;;;;;6375111;22;20056;-96
2021/05/29 19:43:04;;;;;;;2.55;2.35;;;17.30;80.90;;;;;;6366306;22;20077;-96
2021/05/29 20:23:55;;;;;;;3.08;2.67;;;17.10;80.80;;;;;;6377253;22;20012;-96
2021/05/29 20:26:26;;;;;;;2.95;2.65;;;17.10;81.10;;;;;;6347169;22;20027;-95
2021/05/29 20:28:55;;;;;;;2.90;2.60;;;17.10;80.90;;;;;;6347874;22;20060;-96
2021/05/29 20:31:54;;;;;;;2.72;2.53;;;17.00;80.90;;;;;;6346818;22;20037;-95
2021/05/29 20:37:11;;;;;;;3.35;2.67;;;17.00;81.30;;;;;;6374635;22;20002;-96
2021/05/29 20:39:51;;;;;;;;;;;;;;;;;;;;;
2021/05/29 20:42:29;;;;;;;3.03;2.75;;;16.90;81.80;;;;;;6373793;22;20065;-96
2021/05/29 20:48:41;;;;;;;;;;;;;;;;;;;;;
2021/05/29 20:51:22;;;;;;;2.33;2.22;;;16.80;82.90;;;;;;6376305;22;20022;-95
2021/05/29 20:56:55;;;;;;;;;;;;;;;;;;;;;
2021/05/29 20:59:32;;;;;;;3.08;2.78;;;16.70;83.20;;;;;;6373145;22;20081;-96
2021/05/29 21:02:18;;;;;;;3.00;2.63;;;16.60;83.50;;;;;;6345848;22;19994;-96
2021/05/29 21:04:47;;;;;;;3.05;2.83;;;16.50;83.40;;;;;;6350878;22;20031;-95
2021/05/29 21:07:20;;;;;;;3.05;2.75;;;16.40;84.00;;;;;;6360747;22;20016;-95
2021/05/29 21:09:59;;;;;;;3.10;2.80;;;16.30;84.30;;;;;;6366153;22;20036;-94
2021/05/29 21:12:28;;;;;;;2.88;2.58;;;16.30;84.90;;;;;;6368057;22;20024;-95
2021/05/29 21:15:18;;;;;;;3.25;2.40;;;16.20;84.70;;;;;;6365833;22;20007;-95
2021/05/29 21:23:14;;;;;;;3.20;2.90;;;16.20;85.70;;;;;;6399764;22;19913;-96
2021/05/29 21:25:52;;;;;;;3.35;3.05;;;16.20;85.50;;;;;;6372712;22;19982;-96
2021/05/29 21:28:19;;;;;;;2.72;2.53;;;16.20;85.60;;;;;;6372532;22;20005;-95
2021/05/29 21:30:52;;;;;;;3.95;3.28;;;16.20;85.80;;;;;;6372621;22;19999;-96
2021/05/29 21:33:30;;;;;;;2.90;2.70;;;16.30;85.90;;;;;;6373924;22;19990;-96
2021/05/29 21:35:56;;;;;;;3.97;3.20;;;16.30;85.90;;;;;;6374519;22;19997;-95
2021/05/29 21:39:07;;;;;;;;;;;;;;;;;;;;;
2021/05/29 21:41:47;;;;;;;4.30;3.38;;;16.30;86.50;;;;;;6398450;22;20014;-94
2021/05/29 21:44:29;;;;;;;4.15;3.30;;;16.30;86.10;;;;;;6372142;22;20009;-93
2021/05/29 21:50:31;;;;;;;3.10;2.70;;;16.30;85.90;;;;;;6381025;22;20052;-96
2021/05/29 21:53:04;;;;;;;3.95;2.92;;;16.20;85.90;;;;;;6384979;22;20021;-94
2021/05/29 21:55:35;;;;;;;3.28;2.90;;;16.20;86.10;;;;;;6354435;22;20007;-95
2021/05/29 21:58:02;;;;;;;3.33;3.03;;;16.20;86.40;;;;;;6347915;22;20006;-96
2021/05/29 22:00:48;;;;;;;3.78;3.30;;;16.10;87.00;;;;;;6346743;22;19994;-96
2021/05/29 22:03:51;;;;;;;3.20;2.85;;;16.10;86.90;;;;;;6347373;22;20007;-96
2021/05/29 22:06:36;;;;;;;3.40;3.10;;;16.10;88.90;;;;;;6335889;22;20010;-96
2021/05/29 22:09:10;;;;;;;4.22;3.08;;;16.10;87.40;;;;;;6347982;22;20079;-95
2021/05/29 22:19:57;;;;;;;;;;;;;;;;;;;;;
2021/05/29 22:31:34;;;;;;;3.08;2.70;;;16.30;86.60;;;;;;6335520;22;20066;-93
2021/05/29 22:34:02;;;;;;;2.90;2.65;;;16.30;86.50;;;;;;6374093;22;19993;-96
2021/05/29 22:36:58;;;;;;;;;;;;;;;;;;;;;
2021/05/29 22:39:49;;;;;;;3.30;2.65;;;16.40;86.10;;;;;;6400723;22;19995;-95
2021/05/29 22:42:45;;;;;;;3.28;2.90;;;16.30;85.70;;;;;;6373681;22;20050;-95
2021/05/29 22:45:38;;;;;;;3.97;3.10;;;16.30;85.50;;;;;;6373553;22;20007;-95
2021/05/29 22:48:26;;;;;;;3.75;3.00;;;16.30;85.20;;;;;;6398247;22;20011;-95
2021/05/29 22:50:54;;;;;;;3.80;3.00;;;16.30;85.10;;;;;;6348909;22;20085;-96
2021/05/29 22:53:50;;;;;;;;;;;;;;;;;;;;;
2021/05/29 22:56:28;;;;;;;;;;;;;;;;;;;;;
2021/05/29 22:59:17;;;;;;;2.58;2.08;;;16.20;84.90;;;;;;6376551;22;20081;-96
2021/05/29 23:02:30;;;;;;;3.17;2.67;;;16.20;85.00;;;;;;6347218;22;20085;-96
2021/05/29 23:04:46;;;;;;;3.00;2.58;;;16.20;85.40;;;;;;6362943;22;19998;-96
2021/05/29 23:07:21;;;;;;;2.67;2.47;;;16.20;85.10;;;;;;6347961;22;20425;-96
2021/05/29 23:09:50;;;;;;;3.08;2.78;;;16.20;85.00;;;;;;6347558;22;20417;-95
2021/05/29 23:12:33;;;;;;;2.88;2.67;;;16.10;85.20;;;;;;6347986;22;20047;-96
2021/05/29 23:15:06;;;;;;;3.67;3.33;;;16.00;85.30;;;;;;6346341;22;20418;-96
2021/05/29 23:17:55;;;;;;;3.40;3.10;;;16.00;86.20;;;;;;6346120;22;20024;-96
2021/05/29 23:20:26;;;;;;;3.17;2.88;;;15.90;86.50;;;;;;6368415;22;19986;-95
2021/05/29 23:23:07;;;;;;;;;;;;;;;;;;;;;
2021/05/29 23:25:41;;;;;;;3.35;3.05;;;15.80;86.50;;;;;;6400342;22;19994;-94
2021/05/29 23:28:17;;;;;;;3.65;3.25;;;15.80;86.60;;;;;;6372211;22;19999;-93
2021/05/29 23:31:03;;;;;;;3.20;2.90;;;15.80;86.50;;;;;;6356610;22;20010;-95
2021/05/29 23:33:31;;;;;;;7.28;2.90;;;15.80;86.50;;;;;;6352931;22;19999;-96
2021/05/29 23:36:22;;;;;;;3.30;3.00;;;15.80;86.50;;;;;;6352492;22;19998;-96
2021/05/29 23:38:48;;;;;;;2.90;2.60;;;15.80;86.50;;;;;;6350590;22;20013;-95
2021/05/29 23:41:21;;;;;;;3.35;3.05;;;15.70;86.70;;;;;;6373703;22;20022;-96
2021/05/29 23:44:12;;;;;;;3.50;3.20;;;15.70;87.20;;;;;;6380074;22;20343;-96
2021/05/29 23:46:55;;;;;;;4.57;3.53;;;15.60;87.90;;;;;;6360361;22;20033;-96
2021/05/29 23:49:29;;;;;;;4.57;4.13;;;15.60;87.90;;;;;;6377726;22;20002;-95
2021/05/29 23:52:14;;;;;;;4.72;3.95;;;15.50;88.50;;;;;;6377523;22;20025;-96
2021/05/29 23:54:48;;;;;;;5.57;4.35;;;15.40;88.80;;;;;;6384896;22;20002;-96
2021/05/29 23:57:24;;;;;;;4.72;4.20;;;15.40;89.10;;;;;;6396472;22;19998;-95
2021/05/29 23:59:50;;;;;;;4.47;4.07;;;15.30;89.50;;;;;;6400795;22;19992;-96
